createdAt,value
2018-04-07T00:01:05.099Z,42.99
2018-04-07T00:03:37.603Z,42.32
2018-04-07T00:06:10.179Z,42.52
2018-04-07T00:08:46.529Z,41.92
2018-04-07T00:11:19.222Z,41.94
2018-04-07T00:13:51.747Z,42.27
2018-04-07T00:16:24.234Z,41.24
2018-04-07T00:18:57.382Z,41.37
2018-04-07T00:21:29.863Z,41.15
2018-04-07T00:24:02.341Z,41.50
2018-04-07T00:26:34.814Z,41.23
2018-04-07T00:29:07.307Z,41.72
2018-04-07T00:31:39.796Z,40.54
2018-04-07T00:34:12.829Z,41.31
2018-04-07T00:36:45.608Z,41.50
2018-04-07T00:39:22.171Z,40.33
2018-04-07T00:41:59.891Z,40.82
2018-04-07T00:44:32.443Z,41.15
2018-04-07T00:47:05.115Z,40.22
2018-04-07T00:49:37.680Z,40.91
2018-04-07T00:52:10.849Z,40.10
2018-04-07T00:54:47.479Z,40.20
2018-04-07T00:57:20.471Z,40.83
2018-04-07T00:59:53.183Z,39.00
2018-04-07T01:02:25.765Z,40.32
2018-04-07T01:04:58.275Z,40.09
2018-04-07T01:07:30.887Z,39.08
2018-04-07T01:10:03.443Z,40.36
2018-04-07T01:12:35.921Z,40.21
2018-04-07T01:15:08.503Z,39.89
2018-04-07T01:17:41.655Z,40.49
2018-04-07T01:20:16.655Z,39.70
2018-04-07T01:22:49.482Z,40.52
2018-04-07T01:25:22.288Z,40.54
2018-04-07T01:27:58.347Z,39.60
2018-04-07T01:30:30.986Z,39.31
2018-04-07T01:33:03.479Z,39.94
2018-04-07T01:35:35.970Z,40.02
2018-04-07T01:38:08.523Z,39.93
2018-04-07T01:40:43.898Z,39.83
2018-04-07T01:43:18.587Z,40.41
2018-04-07T01:45:52.012Z,41.48
2018-04-07T01:48:24.535Z,41.52
2018-04-07T01:50:57.087Z,41.14
2018-04-07T01:53:29.572Z,40.93
2018-04-07T01:56:02.068Z,40.91
2018-04-07T01:58:34.550Z,40.79
2018-04-07T02:01:07.048Z,41.01
2018-04-07T02:03:39.623Z,41.21
2018-04-07T02:06:18.774Z,40.93
2018-04-07T02:08:52.903Z,41.70
2018-04-07T02:11:26.806Z,41.55
2018-04-07T02:13:59.583Z,42.00
2018-04-07T02:16:32.053Z,42.24
2018-04-07T02:19:04.554Z,42.20
2018-04-07T02:21:37.021Z,42.70
2018-04-07T02:24:09.527Z,42.90
2018-04-07T02:26:46.051Z,42.97
2018-04-07T02:29:19.188Z,42.77
2018-04-07T02:31:56.440Z,42.29
2018-04-07T02:34:29.705Z,42.38
2018-04-07T02:37:02.244Z,42.19
2018-04-07T02:39:34.764Z,42.05
2018-04-07T02:42:07.239Z,42.44
2018-04-07T02:44:39.913Z,42.83
2018-04-07T02:47:18.844Z,42.75
2018-04-07T02:49:55.320Z,43.25
2018-04-07T02:52:29.982Z,43.11
2018-04-07T02:55:02.507Z,42.46
2018-04-07T02:57:34.980Z,41.82
2018-04-07T03:00:07.466Z,42.11
2018-04-07T03:02:40.065Z,41.93
2018-04-07T03:05:14.139Z,42.10
2018-04-07T03:07:48.164Z,42.37
2018-04-07T03:10:21.577Z,42.60
2018-04-07T03:12:58.817Z,42.75
2018-04-07T03:15:31.410Z,42.16
2018-04-07T03:18:03.879Z,42.05
2018-04-07T03:20:36.366Z,41.84
2018-04-07T03:23:08.839Z,42.75
2018-04-07T03:25:45.648Z,42.06
2018-04-07T03:28:19.829Z,42.60
2018-04-07T03:30:56.382Z,41.92
2018-04-07T03:33:29.943Z,41.61
2018-04-07T03:36:02.606Z,42.77
2018-04-07T03:38:35.079Z,43.51
2018-04-07T03:41:07.573Z,43.20
2018-04-07T03:43:41.666Z,42.83
2018-04-07T03:46:20.459Z,43.49
2018-04-07T03:48:56.279Z,43.56
2018-04-07T03:51:30.923Z,44.13
2018-04-07T03:54:03.558Z,44.31
2018-04-07T03:56:36.079Z,44.22
2018-04-07T03:59:08.558Z,44.50
2018-04-07T04:01:41.997Z,43.64
2018-04-07T04:04:19.736Z,44.11
2018-04-07T04:06:57.526Z,43.93
2018-04-07T04:09:30.682Z,43.87
2018-04-07T04:12:03.326Z,43.68
2018-04-07T04:14:35.819Z,43.80
2018-04-07T04:17:08.295Z,43.98
2018-04-07T04:19:42.441Z,43.95
2018-04-07T04:22:18.502Z,44.30
2018-04-07T04:24:53.101Z,43.91
2018-04-07T04:27:28.722Z,43.69
2018-04-07T04:30:01.685Z,44.09
2018-04-07T04:32:34.308Z,43.99
2018-04-07T04:35:06.806Z,43.71
2018-04-07T04:37:39.286Z,43.90
2018-04-07T04:40:14.622Z,43.46
2018-04-07T04:42:59.020Z,43.40
2018-04-07T04:45:31.551Z,43.96
2018-04-07T04:48:04.038Z,44.75
2018-04-07T04:50:36.535Z,44.59
2018-04-07T04:53:09.006Z,44.15
2018-04-07T04:55:45.590Z,43.80
2018-04-07T04:58:20.433Z,43.48
2018-04-07T05:00:59.044Z,43.38
2018-04-07T05:03:31.568Z,43.51
2018-04-07T05:06:04.070Z,43.30
2018-04-07T05:08:36.543Z,42.61
2018-04-07T05:11:09.038Z,42.83
2018-04-07T05:13:48.546Z,42.69
2018-04-07T05:16:25.459Z,43.12
2018-04-07T05:19:00.977Z,41.68
2018-04-07T05:21:33.666Z,42.24
2018-04-07T05:24:06.156Z,41.78
2018-04-07T05:26:38.655Z,42.19
2018-04-07T05:29:14.002Z,40.06
2018-04-07T05:31:49.463Z,41.35
2018-04-07T05:34:27.590Z,40.03
2018-04-07T05:37:01.008Z,39.20
2018-04-07T05:39:33.608Z,38.63
2018-04-07T05:42:06.108Z,38.19
2018-04-07T05:44:38.589Z,36.84
2018-04-07T05:47:12.710Z,36.35
2018-04-07T05:49:50.015Z,37.63
2018-04-07T05:52:24.789Z,38.47
2018-04-07T05:55:00.286Z,37.91
2018-04-07T05:57:32.873Z,38.72
2018-04-07T06:00:05.386Z,38.65
2018-04-07T06:02:37.877Z,37.85
2018-04-07T06:05:10.889Z,36.54
2018-04-07T06:07:50.282Z,37.96
2018-04-07T06:10:24.970Z,38.47
2018-04-07T06:13:00.599Z,37.19
2018-04-07T06:15:33.242Z,37.32
2018-04-07T06:18:05.724Z,36.85
2018-04-07T06:20:38.223Z,36.86
2018-04-07T06:23:14.585Z,35.34
2018-04-07T06:25:50.255Z,36.01
2018-04-07T06:28:26.152Z,35.54
2018-04-07T06:31:00.328Z,37.04
2018-04-07T06:33:33.234Z,36.74
2018-04-07T06:36:05.737Z,36.57
2018-04-07T06:38:38.223Z,36.02
2018-04-07T06:41:11.901Z,36.18
2018-04-07T06:43:54.148Z,36.68
2018-04-07T06:46:29.703Z,35.87
2018-04-07T06:49:02.257Z,34.42
2018-04-07T06:51:34.868Z,34.78
2018-04-07T06:54:07.347Z,34.71
2018-04-07T06:56:40.043Z,35.08
2018-04-07T06:59:17.348Z,34.48
2018-04-07T07:01:57.214Z,33.59
2018-04-07T07:04:31.313Z,34.66
2018-04-07T07:07:03.835Z,33.85
2018-04-07T07:09:36.311Z,33.77
2018-04-07T07:12:08.806Z,33.07
2018-04-07T07:14:45.354Z,33.82
2018-04-07T07:17:19.704Z,31.77
2018-04-07T07:19:53.842Z,33.86
2018-04-07T07:22:30.050Z,32.88
2018-04-07T07:25:02.664Z,32.86
2018-04-07T07:27:35.215Z,32.86
2018-04-07T07:30:07.691Z,31.74
2018-04-07T07:32:41.399Z,32.40
2018-04-07T07:35:21.901Z,32.54
2018-04-07T07:37:58.272Z,32.43
2018-04-07T07:40:31.515Z,31.90
2018-04-07T07:43:04.013Z,32.06
2018-04-07T07:45:36.523Z,31.03
2018-04-07T07:48:08.998Z,31.00
2018-04-07T07:50:44.779Z,29.83
2018-04-07T07:53:18.929Z,32.21
2018-04-07T07:55:58.679Z,31.07
2018-04-07T07:58:31.214Z,29.46
2018-04-07T08:01:03.732Z,30.47
2018-04-07T08:03:36.209Z,31.34
2018-04-07T08:06:08.714Z,29.89
2018-04-07T08:08:48.188Z,29.55
2018-04-07T08:11:24.276Z,28.86
2018-04-07T08:13:57.418Z,29.31
2018-04-07T08:16:30.653Z,29.48
2018-04-07T08:19:03.164Z,30.33
2018-04-07T08:21:35.671Z,30.50
2018-04-07T08:24:08.150Z,29.76
2018-04-07T08:26:41.344Z,30.18
2018-04-07T08:29:16.519Z,29.46
2018-04-07T08:31:58.519Z,29.55
2018-04-07T08:34:31.715Z,29.40
2018-04-07T08:37:04.293Z,27.89
2018-04-07T08:39:36.805Z,28.35
2018-04-07T08:42:09.302Z,29.04
2018-04-07T08:44:45.807Z,28.71
2018-04-07T08:47:23.640Z,26.60
2018-04-07T08:49:57.131Z,22.84
2018-04-07T08:52:29.677Z,20.97
2018-04-07T08:55:02.156Z,21.84
2018-04-07T08:57:34.675Z,24.64
2018-04-07T09:00:07.151Z,24.60
2018-04-07T09:02:39.687Z,24.44
2018-04-07T09:05:23.955Z,27.26
2018-04-07T09:07:57.208Z,26.77
2018-04-07T09:10:31.096Z,26.05
2018-04-07T09:13:03.613Z,25.76
2018-04-07T09:15:36.116Z,26.97
2018-04-07T09:18:08.615Z,25.80
2018-04-07T09:20:43.995Z,26.49
2018-04-07T09:23:18.828Z,26.76
2018-04-07T09:25:56.292Z,26.06
2018-04-07T09:28:30.266Z,26.46
2018-04-07T09:31:08.547Z,27.41
2018-04-07T09:33:42.419Z,27.37
2018-04-07T09:36:15.867Z,26.23
2018-04-07T09:38:50.506Z,26.92
2018-04-07T09:41:23.147Z,25.90
2018-04-07T09:43:58.364Z,24.95
2018-04-07T09:46:31.010Z,26.47
2018-04-07T09:49:03.515Z,25.58
2018-04-07T09:51:36.023Z,25.53
2018-04-07T09:54:08.511Z,25.71
2018-04-07T09:56:41.175Z,26.51
2018-04-07T09:59:18.788Z,27.50
2018-04-07T10:01:59.466Z,25.95
2018-04-07T10:04:32.035Z,26.21
2018-04-07T10:07:04.537Z,26.52
2018-04-07T10:09:37.022Z,24.99
2018-04-07T10:12:09.534Z,25.82
2018-04-07T10:14:47.036Z,25.65
2018-04-07T10:17:22.914Z,27.23
2018-04-07T10:19:57.667Z,25.04
2018-04-07T10:22:30.204Z,26.55
2018-04-07T10:25:02.689Z,25.88
2018-04-07T10:27:35.190Z,26.47
2018-04-07T10:30:07.675Z,24.87
2018-04-07T10:32:40.801Z,25.66
2018-04-07T10:35:13.951Z,27.44
2018-04-07T10:37:46.824Z,25.96
2018-04-07T10:40:19.434Z,26.30
2018-04-07T10:42:52.038Z,25.34
2018-04-07T10:45:24.544Z,25.36
2018-04-07T10:47:57.049Z,24.44
2018-04-07T10:50:29.535Z,24.36
2018-04-07T10:53:02.039Z,25.22
2018-04-07T10:55:34.518Z,25.52
2018-04-07T10:58:07.015Z,25.57
2018-04-07T11:00:39.495Z,25.83
2018-04-07T11:03:12.095Z,25.18
2018-04-07T11:05:44.599Z,24.09
2018-04-07T11:08:17.177Z,23.95
2018-04-07T11:10:49.666Z,23.80
2018-04-07T11:13:22.171Z,24.78
2018-04-07T11:15:54.659Z,23.58
2018-04-07T11:18:27.150Z,23.37
2018-04-07T11:20:59.697Z,22.49
2018-04-07T11:23:32.214Z,22.15
2018-04-07T11:26:04.703Z,22.68
2018-04-07T11:28:37.213Z,22.38
2018-04-07T11:31:09.715Z,21.83
2018-04-07T11:33:42.214Z,23.47
2018-04-07T11:36:14.708Z,22.89
2018-04-07T11:38:47.218Z,23.09
2018-04-07T11:41:19.699Z,23.76
2018-04-07T11:43:52.199Z,22.50
2018-04-07T11:46:24.686Z,22.82
2018-04-07T11:48:57.185Z,24.16
2018-04-07T11:51:29.671Z,22.67
2018-04-07T11:54:02.174Z,21.69
2018-04-07T11:56:34.652Z,22.73
2018-04-07T11:59:07.151Z,23.36
2018-04-07T12:01:39.627Z,24.40
2018-04-07T12:04:12.199Z,22.79
2018-04-07T12:06:44.819Z,21.37
2018-04-07T12:09:17.324Z,21.63
2018-04-07T12:11:49.803Z,22.45
2018-04-07T12:14:22.306Z,21.31
2018-04-07T12:16:54.780Z,21.33
2018-04-07T12:19:27.291Z,21.73
2018-04-07T12:21:59.861Z,22.14
2018-04-07T12:24:32.371Z,19.37
2018-04-07T12:27:04.862Z,18.84
2018-04-07T12:29:37.338Z,19.80
2018-04-07T12:32:09.842Z,20.78
2018-04-07T12:34:42.357Z,20.08
2018-04-07T12:37:14.858Z,21.84
2018-04-07T12:39:47.340Z,20.99
2018-04-07T12:42:19.839Z,22.20
2018-04-07T12:44:52.323Z,20.11
2018-04-07T12:47:24.828Z,20.58
2018-04-07T12:49:57.303Z,19.63
2018-04-07T12:52:29.802Z,18.42
2018-04-07T12:55:02.271Z,17.30
2018-04-07T12:57:34.778Z,18.74
2018-04-07T13:00:07.250Z,18.97
2018-04-07T13:02:39.762Z,18.97
2018-04-07T13:05:12.254Z,18.71
2018-04-07T13:07:44.760Z,17.81
2018-04-07T13:10:17.247Z,17.49
2018-04-07T13:12:49.826Z,16.17
2018-04-07T13:15:22.242Z,18.05
2018-04-07T13:17:54.743Z,18.89
2018-04-07T13:20:27.226Z,19.39
2018-04-07T13:22:59.722Z,19.95
2018-04-07T13:25:32.203Z,19.93
2018-04-07T13:28:04.707Z,19.55
2018-04-07T13:30:37.204Z,18.17
2018-04-07T13:33:10.868Z,19.22
2018-04-07T13:35:43.355Z,19.92
2018-04-07T13:38:15.891Z,19.83
2018-04-07T13:40:48.381Z,19.59
2018-04-07T13:43:20.882Z,18.84
2018-04-07T13:45:53.362Z,18.49
2018-04-07T13:48:25.867Z,17.67
2018-04-07T13:50:58.351Z,16.92
2018-04-07T13:53:30.863Z,18.01
2018-04-07T13:56:03.338Z,17.24
2018-04-07T13:58:35.847Z,19.82
2018-04-07T14:01:08.328Z,21.06
2018-04-07T14:03:41.798Z,20.80
2018-04-07T14:06:14.279Z,21.33
2018-04-07T14:08:46.782Z,22.06
2018-04-07T14:11:19.263Z,22.03
2018-04-07T14:13:51.759Z,21.31
2018-04-07T14:16:24.247Z,21.83
2018-04-07T14:18:56.766Z,21.16
2018-04-07T14:21:29.252Z,21.06
2018-04-07T14:24:01.768Z,22.16
2018-04-07T14:26:34.297Z,22.18
2018-04-07T14:29:06.803Z,21.62
2018-04-07T14:31:39.287Z,21.06
2018-04-07T14:34:11.798Z,22.60
2018-04-07T14:36:44.288Z,21.78
2018-04-07T14:39:16.785Z,22.74
2018-04-07T14:41:49.266Z,22.77
2018-04-07T14:44:21.772Z,22.42
2018-04-07T14:46:54.251Z,21.92
2018-04-07T14:49:26.754Z,22.58
2018-04-07T14:51:59.238Z,21.98
2018-04-07T14:54:31.732Z,22.45
2018-04-07T14:57:04.201Z,21.99
2018-04-07T14:59:36.720Z,21.44
2018-04-07T15:02:09.202Z,21.65
2018-04-07T15:04:41.715Z,21.82
2018-04-07T15:07:14.198Z,21.54
2018-04-07T15:09:46.709Z,20.92
2018-04-07T15:12:19.193Z,20.97
2018-04-07T15:14:51.690Z,21.36
2018-04-07T15:17:24.166Z,21.16
2018-04-07T15:19:56.683Z,21.84
2018-04-07T15:22:29.274Z,21.54
2018-04-07T15:25:01.773Z,21.74
2018-04-07T15:27:34.266Z,21.72
2018-04-07T15:30:06.774Z,22.20
2018-04-07T15:32:39.250Z,22.37
2018-04-07T15:35:11.756Z,22.58
2018-04-07T15:37:44.239Z,22.42
2018-04-07T15:40:16.758Z,23.07
2018-04-07T15:42:49.242Z,22.95
2018-04-07T15:45:21.743Z,23.83
2018-04-07T15:47:54.219Z,23.78
2018-04-07T15:50:26.723Z,24.31
2018-04-07T15:52:59.219Z,24.98
2018-04-07T15:55:31.727Z,24.40
2018-04-07T15:58:04.234Z,25.15
2018-04-07T16:00:36.730Z,25.10
2018-04-07T16:03:09.231Z,24.50
2018-04-07T16:05:41.755Z,25.25
2018-04-07T16:08:14.280Z,24.87
2018-04-07T16:10:46.762Z,24.66
2018-04-07T16:13:19.513Z,25.15
2018-04-07T16:15:52.202Z,24.97
2018-04-07T16:18:24.810Z,24.71
2018-04-07T16:20:57.310Z,24.29
2018-04-07T16:23:29.880Z,24.06
2018-04-07T16:26:02.359Z,25.55
2018-04-07T16:28:34.870Z,25.83
2018-04-07T16:31:07.347Z,25.02
2018-04-07T16:33:40.107Z,25.05
2018-04-07T16:36:12.598Z,25.95
2018-04-07T16:38:45.111Z,25.35
2018-04-07T16:41:17.595Z,25.60
2018-04-07T16:43:50.102Z,25.19
2018-04-07T16:46:22.598Z,25.85
2018-04-07T16:48:55.103Z,25.47
2018-04-07T16:51:27.577Z,25.66
2018-04-07T16:54:00.094Z,25.53
2018-04-07T16:56:32.578Z,25.53
2018-04-07T16:59:05.080Z,25.39
2018-04-07T17:01:37.557Z,25.81
2018-04-07T17:04:10.059Z,26.15
2018-04-07T17:06:42.547Z,25.66
2018-04-07T17:09:15.052Z,26.53
2018-04-07T17:11:47.542Z,26.97
2018-04-07T17:14:20.039Z,26.12
2018-04-07T17:16:52.530Z,26.06
2018-04-07T17:19:25.034Z,26.51
2018-04-07T17:21:57.518Z,26.58
2018-04-07T17:24:30.007Z,26.95
2018-04-07T17:27:02.490Z,27.34
2018-04-07T17:29:34.994Z,27.77
2018-04-07T17:32:07.479Z,28.12
2018-04-07T17:34:39.976Z,28.82
2018-04-07T17:37:12.512Z,29.24
2018-04-07T17:39:45.027Z,29.17
2018-04-07T17:42:17.494Z,29.55
2018-04-07T17:44:49.993Z,29.79
2018-04-07T17:47:22.471Z,30.09
2018-04-07T17:49:54.973Z,30.67
2018-04-07T17:52:27.458Z,31.02
2018-04-07T17:54:59.977Z,31.03
2018-04-07T17:57:32.462Z,31.31
2018-04-07T18:00:04.958Z,31.49
2018-04-07T18:02:37.430Z,31.53
2018-04-07T18:05:09.950Z,31.98
2018-04-07T18:07:42.437Z,32.37
2018-04-07T18:10:14.935Z,32.28
2018-04-07T18:12:47.441Z,33.00
2018-04-07T18:15:19.943Z,32.82
2018-04-07T18:17:52.419Z,33.04
2018-04-07T18:20:24.923Z,33.40
2018-04-07T18:22:57.406Z,33.23
2018-04-07T18:25:29.908Z,33.41
2018-04-07T18:28:02.399Z,33.56
2018-04-07T18:30:34.900Z,34.70
2018-04-07T18:33:07.388Z,34.81
2018-04-07T18:35:39.913Z,35.64
2018-04-07T18:38:12.434Z,35.88
2018-04-07T18:40:44.955Z,36.15
2018-04-07T18:43:17.443Z,36.79
2018-04-07T18:45:49.937Z,36.54
2018-04-07T18:48:22.416Z,35.96
2018-04-07T18:50:54.922Z,35.81
2018-04-07T18:53:27.416Z,35.94
2018-04-07T18:55:59.927Z,35.96
2018-04-07T18:58:32.419Z,36.66
2018-04-07T19:01:04.947Z,36.65
2018-04-07T19:03:37.430Z,35.40
2018-04-07T19:06:10.119Z,35.83
2018-04-07T19:08:42.610Z,35.12
2018-04-07T19:11:15.113Z,35.67
2018-04-07T19:13:47.602Z,36.17
2018-04-07T19:16:20.103Z,36.00
2018-04-07T19:18:52.593Z,36.02
2018-04-07T19:21:25.103Z,36.37
2018-04-07T19:23:57.583Z,36.77
2018-04-07T19:26:30.085Z,36.83
2018-04-07T19:29:02.555Z,37.05
2018-04-07T19:31:35.086Z,37.33
2018-04-07T19:34:07.566Z,37.01
2018-04-07T19:36:40.084Z,37.66
2018-04-07T19:39:12.611Z,37.70
2018-04-07T19:41:45.122Z,38.07
2018-04-07T19:44:17.678Z,38.23
2018-04-07T19:46:50.177Z,39.33
2018-04-07T19:49:22.651Z,38.97
2018-04-07T19:51:55.158Z,39.39
2018-04-07T19:54:27.655Z,39.04
2018-04-07T19:57:00.143Z,39.57
2018-04-07T19:59:32.648Z,40.12
2018-04-07T20:02:05.182Z,40.25
2018-04-07T20:04:37.651Z,39.67
2018-04-07T20:07:10.152Z,39.66
2018-04-07T20:09:42.668Z,39.69
2018-04-07T20:12:15.145Z,39.86
2018-04-07T20:14:47.675Z,39.71
2018-04-07T20:17:20.159Z,40.29
2018-04-07T20:19:52.686Z,40.71
2018-04-07T20:22:25.179Z,41.19
2018-04-07T20:24:57.686Z,41.06
2018-04-07T20:27:30.163Z,41.46
2018-04-07T20:30:02.662Z,41.84
2018-04-07T20:32:35.139Z,42.89
2018-04-07T20:35:07.639Z,42.88
2018-04-07T20:37:40.463Z,43.08
2018-04-07T20:40:12.974Z,43.75
2018-04-07T20:42:45.486Z,43.81
2018-04-07T20:45:18.121Z,43.21
2018-04-07T20:47:50.699Z,43.30
2018-04-07T20:50:23.471Z,43.39
2018-04-07T20:52:56.214Z,44.11
2018-04-07T20:55:28.782Z,44.50
2018-04-07T20:58:01.382Z,43.97
2018-04-07T21:00:34.260Z,44.49
2018-04-07T21:03:06.972Z,44.29
2018-04-07T21:05:39.637Z,44.70
2018-04-07T21:08:12.313Z,44.97
2018-04-07T21:10:45.017Z,45.32
2018-04-07T21:13:17.657Z,45.47
2018-04-07T21:15:50.182Z,45.02
2018-04-07T21:18:22.725Z,44.85
2018-04-07T21:20:55.237Z,45.17
2018-04-07T21:23:27.960Z,46.24
2018-04-07T21:26:00.518Z,46.67
2018-04-07T21:28:33.040Z,47.18
2018-04-07T21:31:05.662Z,45.97
2018-04-07T21:33:38.216Z,45.94
2018-04-07T21:36:10.820Z,46.26
2018-04-07T21:38:43.347Z,46.13
2018-04-07T21:41:15.909Z,45.58
2018-04-07T21:43:48.426Z,46.30
2018-04-07T21:46:21.167Z,46.91
2018-04-07T21:48:53.701Z,46.43
2018-04-07T21:51:26.373Z,46.84
2018-04-07T21:53:59.043Z,47.02
2018-04-07T21:56:31.625Z,47.20
2018-04-07T21:59:04.339Z,46.98
2018-04-07T22:01:37.018Z,47.33
2018-04-07T22:04:09.608Z,47.25
2018-04-07T22:06:42.473Z,46.02
2018-04-07T22:09:15.165Z,46.56
2018-04-07T22:11:47.690Z,46.17
2018-04-07T22:14:20.270Z,46.77
2018-04-07T22:16:52.773Z,46.59
2018-04-07T22:19:25.299Z,46.07
2018-04-07T22:21:57.806Z,46.59
2018-04-07T22:24:30.285Z,46.02
2018-04-07T22:27:02.791Z,46.11
2018-04-07T22:29:35.275Z,46.37
2018-04-07T22:32:07.834Z,45.76
2018-04-07T22:34:40.331Z,45.60
2018-04-07T22:37:12.960Z,46.29
2018-04-07T22:39:45.466Z,46.57
2018-04-07T22:42:18.046Z,46.38
2018-04-07T22:44:50.522Z,46.98
2018-04-07T22:47:23.023Z,47.61
2018-04-07T22:49:55.516Z,47.30
2018-04-07T22:52:28.029Z,46.87
2018-04-07T22:55:00.511Z,46.40
2018-04-07T22:57:33.023Z,46.86
2018-04-07T23:00:05.508Z,47.23
2018-04-07T23:02:38.012Z,47.07
2018-04-07T23:05:10.499Z,47.50
2018-04-07T23:07:43.003Z,46.96
2018-04-07T23:10:15.499Z,46.56
2018-04-07T23:12:48.090Z,46.60
2018-04-07T23:15:20.577Z,46.95
2018-04-07T23:17:53.090Z,46.84
2018-04-07T23:20:25.570Z,47.73
2018-04-07T23:22:58.097Z,47.63
2018-04-07T23:25:30.608Z,47.24
2018-04-07T23:28:03.100Z,47.11
2018-04-07T23:30:35.609Z,47.74
2018-04-07T23:33:08.090Z,48.09
2018-04-07T23:35:40.651Z,47.07
2018-04-07T23:38:13.175Z,47.63
2018-04-07T23:40:45.686Z,47.24
2018-04-07T23:43:18.181Z,47.82
2018-04-07T23:45:50.692Z,48.16
2018-04-07T23:48:23.175Z,48.64
2018-04-07T23:50:55.684Z,49.45
2018-04-07T23:53:28.184Z,48.92
2018-04-07T23:56:00.690Z,47.89
2018-04-07T23:58:33.175Z,47.61
